createdAt,value
2019-03-15T00:01:48.438Z,19.00
2019-03-15T00:04:16.521Z,10.83
2019-03-15T00:06:44.635Z,19.17
2019-03-15T00:09:12.730Z,15.97
2019-03-15T00:11:40.881Z,20.90
2019-03-15T00:14:08.964Z,15.50
2019-03-15T00:16:37.207Z,17.33
2019-03-15T00:19:05.293Z,15.30
2019-03-15T00:21:33.421Z,15.70
2019-03-15T00:24:01.606Z,22.10
2019-03-15T00:26:29.700Z,18.80
2019-03-15T00:28:57.807Z,18.93
2019-03-15T00:31:26.067Z,26.73
2019-03-15T00:33:54.294Z,15.13
2019-03-15T00:36:22.989Z,18.80
2019-03-15T00:38:51.212Z,19.10
2019-03-15T00:41:19.502Z,19.20
2019-03-15T00:43:49.408Z,11.20
2019-03-15T00:46:17.959Z,18.83
2019-03-15T00:48:46.458Z,20.87
2019-03-15T00:51:14.893Z,16.90
2019-03-15T00:53:42.972Z,18.47
2019-03-15T00:56:11.690Z,19.47
2019-03-15T00:58:39.878Z,18.47
2019-03-15T01:01:08.276Z,14.70
2019-03-15T01:03:36.411Z,16.60
2019-03-15T01:06:04.592Z,18.43
2019-03-15T01:08:32.897Z,15.67
2019-03-15T01:11:01.303Z,11.03
2019-03-15T01:13:29.529Z,12.60
2019-03-15T01:15:57.936Z,17.23
2019-03-15T01:18:26.189Z,16.67
2019-03-15T01:20:54.336Z,24.50
2019-03-15T01:23:22.598Z,13.60
2019-03-15T01:25:51.006Z,15.77
2019-03-15T01:28:19.103Z,16.87
2019-03-15T01:30:47.222Z,13.60
2019-03-15T01:33:15.835Z,10.53
2019-03-15T01:35:43.963Z,13.03
2019-03-15T01:38:12.091Z,17.50
2019-03-15T01:40:40.233Z,14.00
2019-03-15T01:43:08.671Z,17.07
2019-03-15T01:45:37.190Z,11.67
2019-03-15T01:48:05.411Z,18.87
2019-03-15T01:50:33.571Z,13.93
2019-03-15T01:53:01.683Z,16.10
2019-03-15T01:55:29.762Z,11.10
2019-03-15T01:57:57.998Z,16.70
2019-03-15T02:00:26.557Z,16.83
2019-03-15T02:02:54.855Z,18.50
2019-03-15T02:05:22.941Z,19.73
2019-03-15T02:07:51.079Z,17.27
2019-03-15T02:10:21.874Z,18.23
2019-03-15T02:12:49.642Z,16.40
2019-03-15T02:15:18.501Z,17.37
2019-03-15T02:17:46.824Z,18.13
2019-03-15T02:20:14.990Z,15.73
2019-03-15T02:22:43.183Z,20.87
2019-03-15T02:25:11.548Z,16.07
2019-03-15T02:27:39.760Z,22.03
2019-03-15T02:30:08.667Z,20.77
2019-03-15T02:32:37.130Z,20.60
2019-03-15T02:35:05.368Z,20.90
2019-03-15T02:37:33.890Z,20.80
2019-03-15T02:40:02.379Z,18.87
2019-03-15T02:42:30.701Z,21.50
2019-03-15T02:44:59.504Z,21.07
2019-03-15T02:47:27.583Z,18.77
2019-03-15T02:49:55.691Z,15.43
2019-03-15T02:52:23.841Z,19.00
2019-03-15T02:54:52.051Z,22.03
2019-03-15T02:57:20.151Z,20.47
2019-03-15T02:59:48.569Z,20.13
2019-03-15T03:02:16.695Z,24.33
2019-03-15T03:04:45.664Z,17.80
2019-03-15T03:07:13.772Z,18.37
2019-03-15T03:09:42.339Z,24.83
2019-03-15T03:12:10.460Z,20.43
2019-03-15T03:14:40.343Z,22.97
2019-03-15T03:17:08.614Z,19.10
2019-03-15T03:19:36.670Z,24.77
2019-03-15T03:22:04.832Z,18.37
2019-03-15T03:24:32.945Z,25.73
2019-03-15T03:27:01.063Z,20.93
2019-03-15T03:29:30.014Z,18.73
2019-03-15T03:31:58.241Z,20.80
2019-03-15T03:34:26.394Z,23.23
2019-03-15T03:36:57.836Z,24.50
2019-03-15T03:39:24.739Z,16.20
2019-03-15T03:41:53.062Z,21.97
2019-03-15T03:44:21.306Z,15.27
2019-03-15T03:46:49.472Z,21.30
2019-03-15T03:49:17.732Z,17.80
2019-03-15T03:51:45.863Z,18.73
2019-03-15T03:54:14.221Z,14.67
2019-03-15T03:56:43.398Z,19.27
2019-03-15T03:59:11.603Z,20.17
2019-03-15T04:01:39.783Z,15.67
2019-03-15T04:04:08.356Z,17.60
2019-03-15T04:06:36.941Z,14.57
2019-03-15T04:09:07.276Z,22.17
2019-03-15T04:11:35.389Z,18.00
2019-03-15T04:14:03.490Z,17.93
2019-03-15T04:16:31.696Z,13.77
2019-03-15T04:18:59.873Z,16.27
2019-03-15T04:21:28.029Z,12.70
2019-03-15T04:23:56.124Z,15.67
2019-03-15T04:26:24.246Z,23.53
2019-03-15T04:28:52.354Z,16.13
2019-03-15T04:31:20.567Z,18.13
2019-03-15T04:33:48.761Z,17.63
2019-03-15T04:36:17.120Z,22.37
2019-03-15T04:38:45.179Z,16.57
2019-03-15T04:41:13.417Z,19.33
2019-03-15T04:43:42.077Z,20.73
2019-03-15T04:46:10.284Z,17.87
2019-03-15T04:48:38.481Z,16.23
2019-03-15T04:51:07.020Z,20.70
2019-03-15T04:53:35.090Z,13.07
2019-03-15T04:56:03.376Z,25.70
2019-03-15T04:58:31.775Z,17.00
2019-03-15T05:00:59.874Z,20.67
2019-03-15T05:03:28.013Z,29.70
2019-03-15T05:06:03.187Z,20.83
2019-03-15T05:08:26.253Z,23.23
2019-03-15T05:10:54.365Z,26.03
2019-03-15T05:13:22.980Z,24.43
2019-03-15T05:15:51.093Z,20.60
2019-03-15T05:18:19.242Z,32.03
2019-03-15T05:20:47.743Z,20.90
2019-03-15T05:23:16.417Z,22.20
2019-03-15T05:25:44.512Z,28.10
2019-03-15T05:28:12.797Z,25.33
2019-03-15T05:30:40.889Z,28.17
2019-03-15T05:33:09.093Z,23.77
2019-03-15T05:35:37.207Z,14.80
2019-03-15T05:38:05.708Z,20.20
2019-03-15T05:40:33.898Z,28.77
2019-03-15T05:43:01.981Z,16.30
2019-03-15T05:45:30.135Z,22.53
2019-03-15T05:47:58.424Z,17.23
2019-03-15T05:50:26.709Z,21.57
2019-03-15T05:52:54.818Z,21.83
2019-03-15T05:55:22.970Z,34.83
2019-03-15T05:57:51.910Z,18.23
2019-03-15T06:00:20.335Z,21.03
2019-03-15T06:02:48.489Z,20.83
2019-03-15T06:05:17.120Z,15.60
2019-03-15T06:07:45.270Z,21.07
2019-03-15T06:10:13.430Z,15.93
2019-03-15T06:12:41.652Z,19.03
2019-03-15T06:15:09.951Z,17.83
2019-03-15T06:17:38.447Z,24.63
2019-03-15T06:20:07.419Z,17.90
2019-03-15T06:22:35.733Z,23.63
2019-03-15T06:25:04.253Z,25.70
2019-03-15T06:27:32.543Z,22.90
2019-03-15T06:30:00.771Z,19.50
2019-03-15T06:32:29.687Z,15.63
2019-03-15T06:34:57.865Z,15.60
2019-03-15T06:37:26.032Z,14.83
2019-03-15T06:39:55.059Z,15.57
2019-03-15T06:42:23.936Z,17.10
2019-03-15T06:44:58.029Z,9.63
2019-03-15T06:47:22.117Z,11.77
2019-03-15T06:49:50.299Z,15.13
2019-03-15T06:52:18.415Z,13.93
2019-03-15T06:54:46.563Z,13.83
2019-03-15T06:57:14.653Z,12.60
2019-03-15T06:59:42.913Z,13.20
2019-03-15T07:02:10.982Z,16.80
2019-03-15T07:04:39.261Z,15.77
2019-03-15T07:07:07.338Z,14.20
2019-03-15T07:09:35.547Z,20.00
2019-03-15T07:12:09.415Z,15.37
2019-03-15T07:14:34.016Z,19.17
2019-03-15T07:17:02.171Z,20.37
2019-03-15T07:19:30.705Z,21.83
2019-03-15T07:21:59.049Z,10.97
2019-03-15T07:24:27.306Z,19.03
2019-03-15T07:26:55.383Z,14.80
2019-03-15T07:29:23.526Z,16.70
2019-03-15T07:31:51.771Z,10.10
2019-03-15T07:34:19.987Z,12.33
2019-03-15T07:36:48.227Z,8.43
2019-03-15T07:39:16.329Z,6.17
2019-03-15T07:41:44.476Z,12.97
2019-03-15T07:44:12.564Z,12.90
2019-03-15T07:46:40.836Z,18.67
2019-03-15T07:49:09.016Z,9.17
2019-03-15T07:51:37.197Z,16.60
2019-03-15T07:54:05.935Z,12.47
2019-03-15T07:56:34.046Z,11.53
2019-03-15T07:59:02.290Z,17.20
2019-03-15T08:01:30.473Z,20.00
2019-03-15T08:03:58.560Z,16.90
2019-03-15T08:06:34.551Z,14.53
2019-03-15T08:08:56.829Z,10.57
2019-03-15T08:11:25.381Z,15.27
2019-03-15T08:13:53.634Z,11.10
2019-03-15T08:16:21.746Z,17.97
2019-03-15T08:18:49.857Z,9.53
2019-03-15T08:21:18.061Z,10.40
2019-03-15T08:23:46.189Z,14.27
2019-03-15T08:26:14.336Z,10.73
2019-03-15T08:28:43.281Z,15.13
2019-03-15T08:31:11.576Z,9.43
2019-03-15T08:33:39.704Z,13.23
2019-03-15T08:36:07.802Z,15.07
2019-03-15T08:38:46.878Z,12.83
2019-03-15T08:41:06.123Z,13.37
2019-03-15T08:43:34.859Z,14.03
2019-03-15T08:46:03.375Z,9.17
2019-03-15T08:48:32.064Z,14.83
2019-03-15T08:51:00.388Z,13.40
2019-03-15T08:53:28.959Z,15.33
2019-03-15T08:55:57.528Z,24.07
2019-03-15T08:58:25.849Z,16.00
2019-03-15T09:00:53.928Z,13.80
2019-03-15T09:03:27.693Z,15.13
2019-03-15T09:05:52.885Z,19.30
2019-03-15T09:08:21.043Z,11.47
2019-03-15T09:10:49.149Z,16.87
2019-03-15T09:13:17.491Z,12.13
2019-03-15T09:15:45.678Z,15.10
2019-03-15T09:18:13.859Z,14.17
2019-03-15T09:20:42.287Z,14.47
2019-03-15T09:23:10.464Z,15.77
2019-03-15T09:25:38.643Z,13.50
2019-03-15T09:28:06.833Z,16.97
2019-03-15T09:30:35.288Z,17.63
2019-03-15T09:33:03.501Z,20.30
2019-03-15T09:35:31.741Z,13.13
2019-03-15T09:37:59.905Z,13.17
2019-03-15T09:40:28.046Z,14.87
2019-03-15T09:42:56.545Z,17.30
2019-03-15T09:45:28.210Z,11.43
2019-03-15T09:47:56.330Z,14.10
2019-03-15T09:50:35.937Z,13.10
2019-03-15T09:52:54.720Z,12.57
2019-03-15T09:55:32.771Z,15.20
2019-03-15T09:57:52.827Z,12.07
2019-03-15T10:00:20.916Z,13.60
2019-03-15T10:02:49.028Z,15.00
2019-03-15T10:05:21.367Z,13.93
2019-03-15T10:07:49.628Z,14.47
2019-03-15T10:10:19.885Z,14.13
2019-03-15T10:12:48.097Z,15.40
2019-03-15T10:15:18.070Z,12.13
2019-03-15T10:17:46.669Z,13.30
2019-03-15T10:20:15.724Z,12.47
2019-03-15T10:22:44.774Z,15.10
2019-03-15T10:25:13.442Z,16.13
2019-03-15T10:27:41.618Z,13.60
2019-03-15T10:30:11.803Z,15.40
2019-03-15T10:32:40.023Z,12.03
2019-03-15T10:35:08.382Z,10.17
2019-03-15T10:37:36.444Z,12.87
2019-03-15T10:40:06.447Z,10.60
2019-03-15T10:42:35.263Z,12.27
2019-03-15T10:45:04.803Z,14.40
2019-03-15T10:47:33.084Z,11.03
2019-03-15T10:50:02.029Z,8.50
2019-03-15T10:52:30.649Z,8.20
2019-03-15T10:54:58.988Z,12.37
2019-03-15T10:57:28.529Z,10.33
2019-03-15T10:59:57.654Z,12.40
2019-03-15T11:02:25.895Z,9.70
2019-03-15T11:04:54.091Z,8.70
2019-03-15T11:07:22.599Z,7.43
2019-03-15T11:09:51.159Z,7.67
2019-03-15T11:12:19.808Z,11.87
2019-03-15T11:14:48.339Z,9.47
2019-03-15T11:17:16.405Z,7.13
2019-03-15T11:19:44.676Z,7.90
2019-03-15T11:22:12.795Z,5.73
2019-03-15T11:24:43.567Z,7.53
2019-03-15T11:27:11.039Z,6.93
2019-03-15T11:29:39.209Z,6.77
2019-03-15T11:32:08.584Z,7.43
2019-03-15T11:34:36.810Z,5.63
2019-03-15T11:37:04.936Z,8.10
2019-03-15T11:39:33.013Z,4.87
2019-03-15T11:42:01.126Z,5.13
2019-03-15T11:44:29.288Z,8.23
2019-03-15T11:46:57.516Z,5.03
2019-03-15T11:49:28.207Z,5.90
2019-03-15T11:51:55.888Z,7.70
2019-03-15T11:54:24.322Z,6.73
2019-03-15T11:56:52.704Z,5.77
2019-03-15T11:59:20.935Z,5.03
2019-03-15T12:01:49.125Z,5.80
2019-03-15T12:04:17.666Z,7.47
2019-03-15T12:06:45.785Z,5.57
2019-03-15T12:09:14.313Z,5.20
2019-03-15T12:11:42.447Z,5.50
2019-03-15T12:14:10.617Z,5.33
2019-03-15T12:16:38.714Z,7.07
2019-03-15T12:19:07.124Z,6.80
2019-03-15T12:21:35.576Z,8.80
2019-03-15T12:24:03.717Z,10.27
2019-03-15T12:26:40.360Z,9.37
2019-03-15T12:29:01.948Z,9.83
2019-03-15T12:31:30.157Z,9.50
2019-03-15T12:33:58.358Z,5.80
2019-03-15T12:36:26.431Z,5.67
2019-03-15T12:38:54.628Z,5.10
2019-03-15T12:41:24.803Z,5.20
2019-03-15T12:43:52.956Z,5.07
2019-03-15T12:46:21.096Z,4.40
2019-03-15T12:48:49.219Z,4.73
2019-03-15T12:51:17.340Z,7.07
2019-03-15T12:53:45.447Z,6.10
2019-03-15T12:56:13.702Z,8.23
2019-03-15T12:58:41.829Z,7.23
2019-03-15T13:01:09.913Z,6.30
2019-03-15T13:03:38.059Z,5.07
2019-03-15T13:06:06.157Z,4.53
2019-03-15T13:08:34.390Z,5.23
2019-03-15T13:11:02.499Z,6.63
2019-03-15T13:13:30.626Z,4.07
2019-03-15T13:15:58.727Z,6.90
2019-03-15T13:18:27.069Z,4.50
2019-03-15T13:20:55.217Z,6.63
2019-03-15T13:23:23.404Z,3.97
2019-03-15T13:25:51.605Z,5.53
2019-03-15T13:28:19.749Z,4.50
2019-03-15T13:30:47.973Z,6.97
2019-03-15T13:33:20.934Z,2.57
2019-03-15T13:35:47.534Z,4.13
2019-03-15T13:38:15.782Z,4.13
2019-03-15T13:40:43.924Z,0.90
2019-03-15T13:43:12.204Z,2.97
2019-03-15T13:45:40.443Z,7.20
2019-03-15T13:48:08.778Z,3.30
2019-03-15T13:50:36.893Z,2.93
2019-03-15T13:53:04.945Z,1.63
2019-03-15T13:55:33.244Z,3.73
2019-03-15T13:58:01.301Z,2.80
2019-03-15T14:00:29.449Z,5.43
2019-03-15T14:02:57.537Z,3.70
2019-03-15T14:05:25.667Z,5.77
2019-03-15T14:07:53.857Z,1.73
2019-03-15T14:10:21.985Z,5.27
2019-03-15T14:12:50.212Z,4.23
2019-03-15T14:15:18.405Z,8.13
2019-03-15T14:17:46.508Z,4.33
2019-03-15T14:20:14.590Z,8.33
2019-03-15T14:22:42.776Z,5.07
2019-03-15T14:25:11.294Z,3.90
2019-03-15T14:27:39.498Z,0.97
2019-03-15T14:30:09.641Z,3.17
2019-03-15T14:32:37.726Z,2.30
2019-03-15T14:35:06.893Z,4.23
2019-03-15T14:37:35.110Z,4.27
2019-03-15T14:40:03.646Z,2.00
2019-03-15T14:42:31.826Z,3.33
2019-03-15T14:45:00.097Z,1.77
2019-03-15T14:47:28.449Z,5.73
2019-03-15T14:49:57.060Z,4.33
2019-03-15T14:52:25.328Z,1.77
2019-03-15T14:54:53.698Z,2.13
2019-03-15T14:57:22.183Z,5.53
2019-03-15T14:59:50.767Z,1.97
2019-03-15T15:02:18.938Z,2.40
2019-03-15T15:04:47.484Z,7.93
2019-03-15T15:07:16.147Z,3.43
2019-03-15T15:09:47.343Z,4.97
2019-03-15T15:12:14.484Z,6.30
2019-03-15T15:14:42.690Z,4.13
2019-03-15T15:17:10.799Z,3.97
2019-03-15T15:19:39.344Z,1.93
2019-03-15T15:22:08.273Z,7.23
2019-03-15T15:24:37.064Z,2.47
2019-03-15T15:27:05.267Z,3.47
2019-03-15T15:29:33.415Z,3.20
2019-03-15T15:32:02.552Z,5.40
2019-03-15T15:34:31.103Z,3.93
2019-03-15T15:36:59.848Z,3.80
2019-03-15T15:39:28.161Z,0.57
2019-03-15T15:41:58.572Z,2.53
2019-03-15T15:44:26.550Z,1.50
2019-03-15T15:46:54.927Z,6.53
2019-03-15T15:49:26.033Z,3.90
2019-03-15T15:51:53.091Z,5.17
2019-03-15T15:54:21.213Z,3.07
2019-03-15T15:56:50.917Z,7.13
2019-03-15T15:59:19.198Z,5.03
2019-03-15T16:01:47.351Z,1.73
2019-03-15T16:04:15.615Z,3.90
2019-03-15T16:06:44.372Z,3.20
2019-03-15T16:09:12.532Z,5.90
2019-03-15T16:11:40.685Z,8.03
2019-03-15T16:14:08.775Z,6.17
2019-03-15T16:16:36.958Z,4.23
2019-03-15T16:19:05.219Z,1.93
2019-03-15T16:21:34.241Z,5.10
2019-03-15T16:24:02.398Z,5.87
2019-03-15T16:26:31.217Z,3.67
2019-03-15T16:28:59.431Z,4.37
2019-03-15T16:31:27.603Z,4.30
2019-03-15T16:33:55.749Z,5.43
2019-03-15T16:36:23.835Z,5.83
2019-03-15T16:38:52.059Z,4.07
2019-03-15T16:41:20.208Z,3.73
2019-03-15T16:43:48.355Z,6.10
2019-03-15T16:46:16.429Z,5.90
2019-03-15T16:48:44.514Z,4.93
2019-03-15T16:51:19.346Z,5.93
2019-03-15T16:53:42.672Z,5.47
2019-03-15T16:56:11.952Z,3.43
2019-03-15T16:58:45.447Z,8.77
2019-03-15T17:01:10.412Z,3.13
2019-03-15T17:03:38.852Z,9.57
2019-03-15T17:06:07.819Z,3.73
2019-03-15T17:08:35.965Z,4.60
2019-03-15T17:11:04.295Z,4.63
2019-03-15T17:13:32.456Z,5.87
2019-03-15T17:16:00.897Z,8.60
2019-03-15T17:18:29.151Z,9.50
2019-03-15T17:20:57.453Z,5.43
2019-03-15T17:23:25.558Z,5.30
2019-03-15T17:25:53.661Z,8.70
2019-03-15T17:28:22.427Z,4.53
2019-03-15T17:30:50.575Z,4.10
2019-03-15T17:33:18.688Z,5.47
2019-03-15T17:35:46.808Z,5.37
2019-03-15T17:38:14.910Z,5.07
2019-03-15T17:40:43.014Z,6.63
2019-03-15T17:43:12.601Z,2.73
2019-03-15T17:45:40.807Z,4.33
2019-03-15T17:48:08.915Z,4.30
2019-03-15T17:50:37.040Z,5.90
2019-03-15T17:53:05.201Z,5.17
2019-03-15T17:55:33.440Z,6.97
2019-03-15T17:58:01.834Z,5.83
2019-03-15T18:00:35.349Z,4.27
2019-03-15T18:03:04.086Z,8.53
2019-03-15T18:05:32.171Z,4.53
2019-03-15T18:08:00.452Z,5.43
2019-03-15T18:10:28.523Z,6.50
2019-03-15T18:12:57.009Z,10.50
2019-03-15T18:15:25.453Z,5.07
2019-03-15T18:17:53.707Z,5.43
2019-03-15T18:20:21.852Z,5.50
2019-03-15T18:22:50.014Z,14.30
2019-03-15T18:25:18.335Z,11.47
2019-03-15T18:27:47.095Z,9.07
2019-03-15T18:30:15.446Z,7.10
2019-03-15T18:32:43.602Z,12.97
2019-03-15T18:35:12.535Z,5.87
2019-03-15T18:37:40.810Z,9.93
2019-03-15T18:40:09.811Z,12.13
2019-03-15T18:42:38.380Z,11.17
2019-03-15T18:45:09.688Z,10.70
2019-03-15T18:47:37.766Z,10.27
2019-03-15T18:50:08.394Z,10.47
2019-03-15T18:52:36.601Z,9.07
2019-03-15T18:55:05.845Z,6.80
2019-03-15T18:57:34.335Z,14.07
2019-03-15T19:00:02.711Z,12.70
2019-03-15T19:02:30.850Z,6.43
2019-03-15T19:04:59.001Z,9.53
2019-03-15T19:07:27.101Z,7.30
2019-03-15T19:09:55.647Z,10.47
2019-03-15T19:12:23.774Z,9.40
2019-03-15T19:14:51.952Z,21.93
2019-03-15T19:17:20.182Z,8.47
2019-03-15T19:19:48.828Z,8.47
2019-03-15T19:22:17.145Z,9.73
2019-03-15T19:24:45.261Z,7.77
2019-03-15T19:27:13.370Z,6.93
2019-03-15T19:29:53.122Z,8.93
2019-03-15T19:32:11.654Z,11.90
2019-03-15T19:34:39.842Z,14.30
2019-03-15T19:37:07.938Z,11.43
2019-03-15T19:39:36.170Z,12.93
2019-03-15T19:42:04.318Z,14.80
2019-03-15T19:44:32.563Z,10.97
2019-03-15T19:47:00.860Z,8.93
2019-03-15T19:49:30.791Z,6.23
2019-03-15T19:51:58.947Z,8.73
2019-03-15T19:54:27.135Z,7.27
2019-03-15T19:56:55.741Z,9.03
2019-03-15T19:59:24.290Z,11.17
2019-03-15T20:01:52.421Z,14.47
2019-03-15T20:04:20.530Z,6.90
2019-03-15T20:06:49.935Z,13.13
2019-03-15T20:09:18.777Z,15.33
2019-03-15T20:11:46.976Z,9.73
2019-03-15T20:14:15.242Z,17.00
2019-03-15T20:16:43.477Z,10.70
2019-03-15T20:19:11.598Z,14.43
2019-03-15T20:21:39.796Z,7.47
2019-03-15T20:24:07.986Z,10.27
2019-03-15T20:26:36.250Z,10.60
2019-03-15T20:29:04.386Z,14.47
2019-03-15T20:31:32.696Z,15.47
2019-03-15T20:34:00.815Z,11.20
2019-03-15T20:36:29.019Z,14.77
2019-03-15T20:38:57.260Z,13.73
2019-03-15T20:41:25.345Z,10.80
2019-03-15T20:43:53.694Z,14.73
2019-03-15T20:46:34.854Z,22.37
2019-03-15T20:48:52.022Z,13.60
2019-03-15T20:51:20.288Z,12.40
2019-03-15T20:53:48.378Z,11.90
2019-03-15T20:56:16.646Z,14.33
2019-03-15T20:58:44.785Z,12.70
2019-03-15T21:01:12.999Z,16.07
2019-03-15T21:03:41.136Z,11.23
2019-03-15T21:06:09.297Z,13.63
2019-03-15T21:08:37.470Z,16.83
2019-03-15T21:11:05.655Z,17.63
2019-03-15T21:13:34.168Z,17.53
2019-03-15T21:16:02.612Z,16.87
2019-03-15T21:18:30.803Z,12.57
2019-03-15T21:20:58.892Z,12.63
2019-03-15T21:23:27.031Z,12.07
2019-03-15T21:25:55.138Z,14.30
2019-03-15T21:28:23.276Z,16.43
2019-03-15T21:30:51.920Z,15.23
2019-03-15T21:33:20.039Z,14.23
2019-03-15T21:35:48.511Z,15.03
2019-03-15T21:38:16.669Z,10.20
2019-03-15T21:40:44.771Z,15.53
2019-03-15T21:43:12.952Z,13.33
2019-03-15T21:45:41.009Z,13.57
2019-03-15T21:48:09.150Z,11.90
2019-03-15T21:50:37.302Z,7.37
2019-03-15T21:53:05.413Z,17.20
2019-03-15T21:55:33.563Z,14.80
2019-03-15T21:58:01.771Z,13.73
2019-03-15T22:00:29.896Z,20.53
2019-03-15T22:02:58.082Z,8.87
2019-03-15T22:05:26.191Z,14.57
2019-03-15T22:07:54.340Z,15.23
2019-03-15T22:10:22.440Z,20.67
2019-03-15T22:12:50.543Z,14.70
2019-03-15T22:15:18.756Z,19.00
2019-03-15T22:17:47.271Z,17.80
2019-03-15T22:20:15.590Z,17.60
2019-03-15T22:22:43.684Z,13.37
2019-03-15T22:25:11.784Z,18.87
2019-03-15T22:27:40.024Z,15.13
2019-03-15T22:30:08.355Z,12.37
2019-03-15T22:32:36.508Z,13.50
2019-03-15T22:35:04.839Z,23.07
2019-03-15T22:37:33.039Z,13.30
2019-03-15T22:40:01.204Z,12.33
2019-03-15T22:42:29.490Z,16.07
2019-03-15T22:44:59.959Z,13.50
2019-03-15T22:47:28.155Z,11.47
2019-03-15T22:49:56.362Z,17.97
2019-03-15T22:52:24.741Z,12.23
2019-03-15T22:54:52.999Z,9.33
2019-03-15T22:57:21.123Z,9.00
2019-03-15T22:59:49.332Z,22.60
2019-03-15T23:02:17.658Z,14.50
2019-03-15T23:04:45.846Z,11.27
2019-03-15T23:07:14.688Z,16.53
2019-03-15T23:09:43.230Z,13.63
2019-03-15T23:12:12.333Z,14.07
2019-03-15T23:14:40.528Z,11.80
2019-03-15T23:17:08.682Z,14.33
2019-03-15T23:19:36.839Z,14.50
2019-03-15T23:22:04.959Z,15.67
2019-03-15T23:24:33.075Z,10.10
2019-03-15T23:27:02.214Z,12.00
2019-03-15T23:29:30.403Z,15.70
2019-03-15T23:31:58.559Z,16.87
2019-03-15T23:34:26.944Z,21.67
2019-03-15T23:36:55.026Z,11.90
2019-03-15T23:39:23.264Z,8.93
2019-03-15T23:41:55.116Z,5.93
2019-03-15T23:44:22.640Z,15.47
2019-03-15T23:46:50.861Z,18.13
2019-03-15T23:49:18.909Z,13.37
2019-03-15T23:51:47.454Z,19.03
2019-03-15T23:54:15.680Z,16.37
2019-03-15T23:56:44.104Z,15.03
2019-03-15T23:59:12.194Z,11.40
